sensor_id;sensor_type;location;lat;lon;timestamp;P1;durP1;ratioP1;P2;durP2;ratioP2
8540;SDS011;4308;51.294;6.590;2023-04-01T00:01:20;3.70;;;1.63;;
8540;SDS011;4308;51.294;6.590;2023-04-01T00:03:48;2.80;;;1.00;;
8540;SDS011;4308;51.294;6.590;2023-04-01T00:06:17;1.87;;;1.27;;
8540;SDS011;4308;51.294;6.590;2023-04-01T00:08:45;6.77;;;1.30;;
8540;SDS011;4308;51.294;6.590;2023-04-01T00:11:13;2.90;;;1.10;;
8540;SDS011;4308;51.294;6.590;2023-04-01T00:13:41;3.23;;;1.10;;
8540;SDS011;4308;51.294;6.590;2023-04-01T00:16:08;2.63;;;1.00;;
8540;SDS011;4308;51.294;6.590;2023-04-01T00:18:47;1.90;;;0.90;;
8540;SDS011;4308;51.294;6.590;2023-04-01T00:21:15;3.53;;;1.03;;
8540;SDS011;4308;51.294;6.590;2023-04-01T00:23:43;3.93;;;1.40;;
8540;SDS011;4308;51.294;6.590;2023-04-01T00:26:10;4.40;;;1.30;;
8540;SDS011;4308;51.294;6.590;2023-04-01T00:28:38;3.83;;;1.03;;
8540;SDS011;4308;51.294;6.590;2023-04-01T00:31:06;3.83;;;1.10;;
8540;SDS011;4308;51.294;6.590;2023-04-01T00:33:34;3.07;;;0.97;;
8540;SDS011;4308;51.294;6.590;2023-04-01T00:38:35;5.33;;;1.03;;
8540;SDS011;4308;51.294;6.590;2023-04-01T00:41:03;3.83;;;1.03;;
8540;SDS011;4308;51.294;6.590;2023-04-01T00:43:31;3.20;;;1.00;;
8540;SDS011;4308;51.294;6.590;2023-04-01T00:45:59;1.07;;;0.97;;
8540;SDS011;4308;51.294;6.590;2023-04-01T00:48:28;1.73;;;0.97;;
8540;SDS011;4308;51.294;6.590;2023-04-01T00:51:09;2.00;;;1.00;;
8540;SDS011;4308;51.294;6.590;2023-04-01T00:53:40;1.90;;;0.90;;
8540;SDS011;4308;51.294;6.590;2023-04-01T00:59:17;4.57;;;1.00;;
8540;SDS011;4308;51.294;6.590;2023-04-01T01:01:46;1.33;;;0.73;;
8540;SDS011;4308;51.294;6.590;2023-04-01T01:04:26;2.87;;;1.00;;
8540;SDS011;4308;51.294;6.590;2023-04-01T01:12:13;3.03;;;1.00;;
8540;SDS011;4308;51.294;6.590;2023-04-01T01:25:32;2.37;;;1.00;;
8540;SDS011;4308;51.294;6.590;2023-04-01T01:31:12;1.93;;;0.90;;
8540;SDS011;4308;51.294;6.590;2023-04-01T01:33:34;3.37;;;0.87;;
8540;SDS011;4308;51.294;6.590;2023-04-01T01:36:04;2.20;;;0.87;;
8540;SDS011;4308;51.294;6.590;2023-04-01T01:38:32;1.83;;;0.80;;
8540;SDS011;4308;51.294;6.590;2023-04-01T01:41:01;2.00;;;0.70;;
8540;SDS011;4308;51.294;6.590;2023-04-01T01:43:32;1.87;;;0.90;;
8540;SDS011;4308;51.294;6.590;2023-04-01T01:46:01;1.17;;;0.80;;
8540;SDS011;4308;51.294;6.590;2023-04-01T01:48:31;0.57;;;0.57;;
8540;SDS011;4308;51.294;6.590;2023-04-01T01:51:00;1.40;;;1.03;;
8540;SDS011;4308;51.294;6.590;2023-04-01T01:53:27;1.20;;;1.10;;
8540;SDS011;4308;51.294;6.590;2023-04-01T01:55:55;0.90;;;0.80;;
8540;SDS011;4308;51.294;6.590;2023-04-01T02:00:54;1.13;;;0.70;;
8540;SDS011;4308;51.294;6.590;2023-04-01T02:03:23;1.00;;;0.70;;
8540;SDS011;4308;51.294;6.590;2023-04-01T02:05:53;1.00;;;0.90;;
8540;SDS011;4308;51.294;6.590;2023-04-01T02:08:23;1.70;;;1.27;;
8540;SDS011;4308;51.294;6.590;2023-04-01T02:10:59;1.30;;;0.80;;
8540;SDS011;4308;51.294;6.590;2023-04-01T02:13:33;3.40;;;0.90;;
8540;SDS011;4308;51.294;6.590;2023-04-01T02:16:02;1.90;;;1.10;;
8540;SDS011;4308;51.294;6.590;2023-04-01T02:18:32;2.63;;;1.00;;
8540;SDS011;4308;51.294;6.590;2023-04-01T02:21:00;2.20;;;1.03;;
8540;SDS011;4308;51.294;6.590;2023-04-01T02:23:29;2.57;;;1.17;;
8540;SDS011;4308;51.294;6.590;2023-04-01T02:25:57;4.17;;;0.90;;
8540;SDS011;4308;51.294;6.590;2023-04-01T02:28:24;2.00;;;0.80;;
8540;SDS011;4308;51.294;6.590;2023-04-01T02:30:52;4.33;;;0.83;;
8540;SDS011;4308;51.294;6.590;2023-04-01T02:33:20;1.33;;;0.83;;
8540;SDS011;4308;51.294;6.590;2023-04-01T02:35:48;4.07;;;1.20;;
8540;SDS011;4308;51.294;6.590;2023-04-01T02:38:15;2.23;;;0.97;;
8540;SDS011;4308;51.294;6.590;2023-04-01T02:40:57;1.97;;;1.03;;
8540;SDS011;4308;51.294;6.590;2023-04-01T02:43:25;2.13;;;1.17;;
8540;SDS011;4308;51.294;6.590;2023-04-01T02:45:53;2.70;;;0.90;;
8540;SDS011;4308;51.294;6.590;2023-04-01T02:48:21;4.33;;;1.37;;
8540;SDS011;4308;51.294;6.590;2023-04-01T02:50:48;2.00;;;0.90;;
8540;SDS011;4308;51.294;6.590;2023-04-01T02:53:16;1.57;;;1.00;;
8540;SDS011;4308;51.294;6.590;2023-04-01T02:55:44;1.63;;;0.90;;
8540;SDS011;4308;51.294;6.590;2023-04-01T02:58:11;1.53;;;0.93;;
8540;SDS011;4308;51.294;6.590;2023-04-01T03:00:39;1.20;;;0.67;;
8540;SDS011;4308;51.294;6.590;2023-04-01T03:03:06;2.87;;;0.83;;
8540;SDS011;4308;51.294;6.590;2023-04-01T03:05:34;2.47;;;0.90;;
8540;SDS011;4308;51.294;6.590;2023-04-01T03:08:02;2.67;;;0.77;;
8540;SDS011;4308;51.294;6.590;2023-04-01T03:10:29;1.37;;;0.90;;
8540;SDS011;4308;51.294;6.590;2023-04-01T03:12:57;1.77;;;0.80;;
8540;SDS011;4308;51.294;6.590;2023-04-01T03:15:24;2.80;;;0.80;;
8540;SDS011;4308;51.294;6.590;2023-04-01T03:17:52;1.47;;;1.00;;
8540;SDS011;4308;51.294;6.590;2023-04-01T03:20:20;0.97;;;0.87;;
8540;SDS011;4308;51.294;6.590;2023-04-01T03:22:47;0.70;;;0.63;;
8540;SDS011;4308;51.294;6.590;2023-04-01T03:25:15;2.90;;;0.90;;
8540;SDS011;4308;51.294;6.590;2023-04-01T03:27:43;2.03;;;1.10;;
8540;SDS011;4308;51.294;6.590;2023-04-01T03:30:10;0.90;;;0.90;;
8540;SDS011;4308;51.294;6.590;2023-04-01T03:32:38;0.73;;;0.73;;
8540;SDS011;4308;51.294;6.590;2023-04-01T03:35:06;2.10;;;0.90;;
8540;SDS011;4308;51.294;6.590;2023-04-01T03:37:33;2.27;;;0.83;;
8540;SDS011;4308;51.294;6.590;2023-04-01T03:40:01;2.40;;;1.00;;
8540;SDS011;4308;51.294;6.590;2023-04-01T03:42:29;1.13;;;0.90;;
8540;SDS011;4308;51.294;6.590;2023-04-01T03:44:57;1.73;;;1.00;;
8540;SDS011;4308;51.294;6.590;2023-04-01T03:47:24;2.10;;;1.43;;
8540;SDS011;4308;51.294;6.590;2023-04-01T03:49:52;1.53;;;0.80;;
8540;SDS011;4308;51.294;6.590;2023-04-01T03:52:20;1.30;;;0.70;;
8540;SDS011;4308;51.294;6.590;2023-04-01T03:54:47;2.40;;;0.93;;
8540;SDS011;4308;51.294;6.590;2023-04-01T03:57:15;2.73;;;0.80;;
8540;SDS011;4308;51.294;6.590;2023-04-01T03:59:42;1.20;;;1.10;;
8540;SDS011;4308;51.294;6.590;2023-04-01T04:02:10;2.70;;;0.80;;
8540;SDS011;4308;51.294;6.590;2023-04-01T04:04:37;1.53;;;1.10;;
8540;SDS011;4308;51.294;6.590;2023-04-01T04:07:05;1.43;;;1.10;;
8540;SDS011;4308;51.294;6.590;2023-04-01T04:09:32;0.87;;;0.87;;
8540;SDS011;4308;51.294;6.590;2023-04-01T04:12:00;0.83;;;0.80;;
8540;SDS011;4308;51.294;6.590;2023-04-01T04:14:28;1.53;;;1.20;;
8540;SDS011;4308;51.294;6.590;2023-04-01T04:16:55;1.83;;;1.10;;
8540;SDS011;4308;51.294;6.590;2023-04-01T04:19:23;1.70;;;0.93;;
8540;SDS011;4308;51.294;6.590;2023-04-01T04:21:51;1.23;;;1.10;;
8540;SDS011;4308;51.294;6.590;2023-04-01T04:24:18;0.93;;;0.87;;
8540;SDS011;4308;51.294;6.590;2023-04-01T04:26:46;1.93;;;0.90;;
8540;SDS011;4308;51.294;6.590;2023-04-01T04:29:13;0.90;;;0.90;;
8540;SDS011;4308;51.294;6.590;2023-04-01T04:31:41;1.30;;;0.90;;
8540;SDS011;4308;51.294;6.590;2023-04-01T04:34:09;1.70;;;1.00;;
8540;SDS011;4308;51.294;6.590;2023-04-01T04:36:36;1.83;;;1.20;;
8540;SDS011;4308;51.294;6.590;2023-04-01T04:39:04;2.50;;;1.10;;
8540;SDS011;4308;51.294;6.590;2023-04-01T04:41:31;1.80;;;1.13;;
8540;SDS011;4308;51.294;6.590;2023-04-01T04:44:02;3.03;;;1.00;;
8540;SDS011;4308;51.294;6.590;2023-04-01T04:46:30;3.17;;;1.30;;
8540;SDS011;4308;51.294;6.590;2023-04-01T04:48:58;2.07;;;1.40;;
8540;SDS011;4308;51.294;6.590;2023-04-01T04:51:25;0.93;;;0.93;;
8540;SDS011;4308;51.294;6.590;2023-04-01T04:53:53;2.10;;;1.20;;
8540;SDS011;4308;51.294;6.590;2023-04-01T04:56:21;2.50;;;1.40;;
8540;SDS011;4308;51.294;6.590;2023-04-01T04:58:49;1.23;;;1.13;;
8540;SDS011;4308;51.294;6.590;2023-04-01T05:01:17;3.23;;;1.20;;
8540;SDS011;4308;51.294;6.590;2023-04-01T05:03:45;1.20;;;1.10;;
8540;SDS011;4308;51.294;6.590;2023-04-01T05:06:14;3.03;;;1.30;;
8540;SDS011;4308;51.294;6.590;2023-04-01T05:08:42;2.53;;;1.00;;
8540;SDS011;4308;51.294;6.590;2023-04-01T05:11:14;1.50;;;1.30;;
8540;SDS011;4308;51.294;6.590;2023-04-01T05:13:42;1.17;;;1.07;;
8540;SDS011;4308;51.294;6.590;2023-04-01T05:16:11;1.90;;;1.37;;
8540;SDS011;4308;51.294;6.590;2023-04-01T05:18:39;1.40;;;1.30;;
8540;SDS011;4308;51.294;6.590;2023-04-01T05:21:07;3.13;;;1.47;;
8540;SDS011;4308;51.294;6.590;2023-04-01T05:23:35;1.87;;;1.57;;
8540;SDS011;4308;51.294;6.590;2023-04-01T05:26:06;1.70;;;1.60;;
8540;SDS011;4308;51.294;6.590;2023-04-01T05:28:34;1.80;;;1.70;;
8540;SDS011;4308;51.294;6.590;2023-04-01T05:31:02;3.37;;;1.67;;
8540;SDS011;4308;51.294;6.590;2023-04-01T05:33:30;1.93;;;1.83;;
8540;SDS011;4308;51.294;6.590;2023-04-01T05:36:08;3.57;;;2.20;;
8540;SDS011;4308;51.294;6.590;2023-04-01T05:38:35;2.50;;;2.17;;
8540;SDS011;4308;51.294;6.590;2023-04-01T05:41:03;3.10;;;1.57;;
8540;SDS011;4308;51.294;6.590;2023-04-01T05:43:31;2.30;;;1.83;;
8540;SDS011;4308;51.294;6.590;2023-04-01T05:45:58;2.37;;;1.93;;
8540;SDS011;4308;51.294;6.590;2023-04-01T05:48:26;2.40;;;1.77;;
8540;SDS011;4308;51.294;6.590;2023-04-01T05:50:53;1.60;;;1.50;;
8540;SDS011;4308;51.294;6.590;2023-04-01T05:53:21;2.23;;;2.03;;
8540;SDS011;4308;51.294;6.590;2023-04-01T05:55:48;1.93;;;1.70;;
8540;SDS011;4308;51.294;6.590;2023-04-01T05:58:16;1.80;;;1.70;;
8540;SDS011;4308;51.294;6.590;2023-04-01T06:00:44;3.00;;;2.30;;
8540;SDS011;4308;51.294;6.590;2023-04-01T06:03:13;2.53;;;2.33;;
8540;SDS011;4308;51.294;6.590;2023-04-01T06:05:42;2.60;;;2.27;;
8540;SDS011;4308;51.294;6.590;2023-04-01T06:08:16;2.50;;;2.17;;
8540;SDS011;4308;51.294;6.590;2023-04-01T06:21:33;3.37;;;3.07;;
8540;SDS011;4308;51.294;6.590;2023-04-01T06:26:50;5.13;;;3.10;;
8540;SDS011;4308;51.294;6.590;2023-04-01T06:34:32;3.57;;;3.00;;
8540;SDS011;4308;51.294;6.590;2023-04-01T06:47:32;3.60;;;2.10;;
8540;SDS011;4308;51.294;6.590;2023-04-01T06:50:07;2.63;;;2.30;;
8540;SDS011;4308;51.294;6.590;2023-04-01T06:52:58;2.03;;;1.90;;
8540;SDS011;4308;51.294;6.590;2023-04-01T06:57:56;2.33;;;2.10;;
8540;SDS011;4308;51.294;6.590;2023-04-01T07:00:29;2.00;;;1.80;;
8540;SDS011;4308;51.294;6.590;2023-04-01T07:05:33;2.70;;;2.50;;
8540;SDS011;4308;51.294;6.590;2023-04-01T07:08:02;2.67;;;2.47;;
8540;SDS011;4308;51.294;6.590;2023-04-01T07:10:47;9.93;;;2.30;;
8540;SDS011;4308;51.294;6.590;2023-04-01T07:16:38;2.60;;;2.40;;
8540;SDS011;4308;51.294;6.590;2023-04-01T07:21:47;3.30;;;2.67;;
8540;SDS011;4308;51.294;6.590;2023-04-01T07:24:24;3.07;;;2.87;;
8540;SDS011;4308;51.294;6.590;2023-04-01T07:26:55;3.00;;;2.70;;
8540;SDS011;4308;51.294;6.590;2023-04-01T07:29:23;2.80;;;2.60;;
8540;SDS011;4308;51.294;6.590;2023-04-01T07:34:26;3.73;;;2.90;;
8540;SDS011;4308;51.294;6.590;2023-04-01T07:37:00;2.87;;;2.67;;
8540;SDS011;4308;51.294;6.590;2023-04-01T07:39:35;4.37;;;2.50;;
8540;SDS011;4308;51.294;6.590;2023-04-01T07:47:28;3.97;;;2.47;;
8540;SDS011;4308;51.294;6.590;2023-04-01T07:57:50;2.50;;;2.27;;
8540;SDS011;4308;51.294;6.590;2023-04-01T08:00:20;2.10;;;2.00;;
8540;SDS011;4308;51.294;6.590;2023-04-01T08:05:24;2.10;;;1.90;;
8540;SDS011;4308;51.294;6.590;2023-04-01T08:07:56;3.53;;;2.00;;
8540;SDS011;4308;51.294;6.590;2023-04-01T08:10:32;1.80;;;1.70;;
8540;SDS011;4308;51.294;6.590;2023-04-01T08:20:34;3.67;;;2.00;;
8540;SDS011;4308;51.294;6.590;2023-04-01T08:23:11;2.20;;;2.00;;
8540;SDS011;4308;51.294;6.590;2023-04-01T08:25:44;2.77;;;2.10;;
8540;SDS011;4308;51.294;6.590;2023-04-01T08:28:17;2.27;;;2.07;;
8540;SDS011;4308;51.294;6.590;2023-04-01T08:30:53;3.33;;;2.30;;
8540;SDS011;4308;51.294;6.590;2023-04-01T08:33:27;2.83;;;2.63;;
8540;SDS011;4308;51.294;6.590;2023-04-01T08:44:16;3.93;;;3.53;;
8540;SDS011;4308;51.294;6.590;2023-04-01T08:57:18;4.67;;;4.27;;
8540;SDS011;4308;51.294;6.590;2023-04-01T09:00:01;5.10;;;4.70;;
8540;SDS011;4308;51.294;6.590;2023-04-01T09:05:09;7.40;;;5.10;;
8540;SDS011;4308;51.294;6.590;2023-04-01T09:17:59;5.17;;;4.67;;
8540;SDS011;4308;51.294;6.590;2023-04-01T09:31:41;5.43;;;4.93;;
8540;SDS011;4308;51.294;6.590;2023-04-01T09:39:15;9.03;;;6.00;;
8540;SDS011;4308;51.294;6.590;2023-04-01T09:44:20;8.00;;;6.37;;
8540;SDS011;4308;51.294;6.590;2023-04-01T09:47:51;6.97;;;5.93;;
8540;SDS011;4308;51.294;6.590;2023-04-01T09:52:51;8.70;;;6.40;;
8540;SDS011;4308;51.294;6.590;2023-04-01T09:58:04;10.07;;;6.53;;
8540;SDS011;4308;51.294;6.590;2023-04-01T10:14:19;7.83;;;6.50;;
8540;SDS011;4308;51.294;6.590;2023-04-01T10:16:57;7.17;;;6.00;;
8540;SDS011;4308;51.294;6.590;2023-04-01T10:22:10;6.77;;;5.83;;
8540;SDS011;4308;51.294;6.590;2023-04-01T10:27:20;6.70;;;5.97;;
8540;SDS011;4308;51.294;6.590;2023-04-01T10:48:35;6.10;;;5.40;;
8540;SDS011;4308;51.294;6.590;2023-04-01T11:09:19;6.13;;;5.53;;
8540;SDS011;4308;51.294;6.590;2023-04-01T11:45:00;4.63;;;4.23;;
8540;SDS011;4308;51.294;6.590;2023-04-01T11:58:12;5.30;;;4.80;;
8540;SDS011;4308;51.294;6.590;2023-04-01T12:03:37;6.30;;;4.60;;
8540;SDS011;4308;51.294;6.590;2023-04-01T12:11:32;6.53;;;5.90;;
8540;SDS011;4308;51.294;6.590;2023-04-01T12:14:08;6.60;;;5.83;;
8540;SDS011;4308;51.294;6.590;2023-04-01T12:16:47;7.80;;;6.57;;
8540;SDS011;4308;51.294;6.590;2023-04-01T12:20:14;7.77;;;6.47;;
8540;SDS011;4308;51.294;6.590;2023-04-01T12:22:10;6.60;;;5.83;;
8540;SDS011;4308;51.294;6.590;2023-04-01T12:37:42;5.67;;;5.10;;
8540;SDS011;4308;51.294;6.590;2023-04-01T12:45:31;6.00;;;4.93;;
8540;SDS011;4308;51.294;6.590;2023-04-01T12:50:30;7.07;;;5.23;;
8540;SDS011;4308;51.294;6.590;2023-04-01T12:53:21;6.60;;;4.80;;
8540;SDS011;4308;51.294;6.590;2023-04-01T12:55:54;5.00;;;4.00;;
8540;SDS011;4308;51.294;6.590;2023-04-01T13:16:24;3.87;;;3.43;;
8540;SDS011;4308;51.294;6.590;2023-04-01T13:24:06;5.20;;;3.50;;
8540;SDS011;4308;51.294;6.590;2023-04-01T13:26:40;4.13;;;3.57;;
8540;SDS011;4308;51.294;6.590;2023-04-01T13:29:19;5.57;;;3.30;;
8540;SDS011;4308;51.294;6.590;2023-04-01T13:37:33;5.03;;;3.60;;
8540;SDS011;4308;51.294;6.590;2023-04-01T13:52:47;4.07;;;3.60;;
8540;SDS011;4308;51.294;6.590;2023-04-01T13:55:29;5.80;;;3.87;;
8540;SDS011;4308;51.294;6.590;2023-04-01T14:09:02;3.80;;;2.43;;
8540;SDS011;4308;51.294;6.590;2023-04-01T14:11:34;3.80;;;2.67;;
8540;SDS011;4308;51.294;6.590;2023-04-01T14:27:44;2.80;;;2.57;;
8540;SDS011;4308;51.294;6.590;2023-04-01T14:30:25;3.13;;;2.63;;
8540;SDS011;4308;51.294;6.590;2023-04-01T14:33:04;3.03;;;2.77;;
8540;SDS011;4308;51.294;6.590;2023-04-01T14:38:30;2.67;;;2.30;;
8540;SDS011;4308;51.294;6.590;2023-04-01T14:54:06;3.10;;;2.70;;
8540;SDS011;4308;51.294;6.590;2023-04-01T14:56:36;3.03;;;2.80;;
8540;SDS011;4308;51.294;6.590;2023-04-01T14:59:07;3.13;;;2.67;;
8540;SDS011;4308;51.294;6.590;2023-04-01T15:01:38;3.20;;;2.90;;
8540;SDS011;4308;51.294;6.590;2023-04-01T15:14:18;4.13;;;2.40;;
8540;SDS011;4308;51.294;6.590;2023-04-01T15:16:52;2.50;;;2.30;;
8540;SDS011;4308;51.294;6.590;2023-04-01T15:24:52;2.83;;;2.53;;
8540;SDS011;4308;51.294;6.590;2023-04-01T15:32:26;2.90;;;2.50;;
8540;SDS011;4308;51.294;6.590;2023-04-01T15:56:49;2.97;;;2.63;;
8540;SDS011;4308;51.294;6.590;2023-04-01T16:02:23;2.80;;;2.37;;
8540;SDS011;4308;51.294;6.590;2023-04-01T16:05:05;2.20;;;2.10;;
8540;SDS011;4308;51.294;6.590;2023-04-01T16:18:07;2.47;;;1.90;;
8540;SDS011;4308;51.294;6.590;2023-04-01T16:23:24;2.37;;;1.80;;
8540;SDS011;4308;51.294;6.590;2023-04-01T16:26:05;2.47;;;2.27;;
8540;SDS011;4308;51.294;6.590;2023-04-01T16:28:57;3.10;;;2.13;;
8540;SDS011;4308;51.294;6.590;2023-04-01T16:33:57;2.60;;;2.20;;
8540;SDS011;4308;51.294;6.590;2023-04-01T16:36:39;2.50;;;2.30;;
8540;SDS011;4308;51.294;6.590;2023-04-01T16:44:22;2.57;;;2.37;;
8540;SDS011;4308;51.294;6.590;2023-04-01T16:46:54;2.70;;;2.50;;
8540;SDS011;4308;51.294;6.590;2023-04-01T16:49:30;2.93;;;2.73;;
8540;SDS011;4308;51.294;6.590;2023-04-01T17:02:14;3.90;;;3.50;;
8540;SDS011;4308;51.294;6.590;2023-04-01T17:10:00;3.63;;;3.30;;
8540;SDS011;4308;51.294;6.590;2023-04-01T17:27:52;3.60;;;3.30;;
8540;SDS011;4308;51.294;6.590;2023-04-01T17:30:30;4.43;;;3.50;;
8540;SDS011;4308;51.294;6.590;2023-04-01T17:35:43;7.13;;;4.00;;
8540;SDS011;4308;51.294;6.590;2023-04-01T17:38:34;4.23;;;3.80;;
8540;SDS011;4308;51.294;6.590;2023-04-01T17:41:18;4.00;;;3.60;;
8540;SDS011;4308;51.294;6.590;2023-04-01T17:43:52;5.47;;;4.13;;
8540;SDS011;4308;51.294;6.590;2023-04-01T17:51:33;4.13;;;3.73;;
8540;SDS011;4308;51.294;6.590;2023-04-01T17:59:06;3.90;;;3.50;;
8540;SDS011;4308;51.294;6.590;2023-04-01T18:07:00;4.63;;;3.90;;
8540;SDS011;4308;51.294;6.590;2023-04-01T18:15:21;3.70;;;3.40;;
8540;SDS011;4308;51.294;6.590;2023-04-01T18:17:55;4.20;;;3.80;;
8540;SDS011;4308;51.294;6.590;2023-04-01T18:20:29;21.53;;;4.40;;
8540;SDS011;4308;51.294;6.590;2023-04-01T18:23:00;5.03;;;4.10;;
8540;SDS011;4308;51.294;6.590;2023-04-01T18:25:33;3.93;;;3.53;;
8540;SDS011;4308;51.294;6.590;2023-04-01T18:30:35;4.30;;;3.80;;
8540;SDS011;4308;51.294;6.590;2023-04-01T18:33:04;3.83;;;3.40;;
8540;SDS011;4308;51.294;6.590;2023-04-01T18:35:47;4.13;;;3.47;;
8540;SDS011;4308;51.294;6.590;2023-04-01T18:38:20;4.33;;;3.93;;
8540;SDS011;4308;51.294;6.590;2023-04-01T18:41:10;5.00;;;4.13;;
8540;SDS011;4308;51.294;6.590;2023-04-01T18:43:42;5.40;;;3.87;;
8540;SDS011;4308;51.294;6.590;2023-04-01T18:48:59;5.43;;;3.63;;
8540;SDS011;4308;51.294;6.590;2023-04-01T18:51:49;4.03;;;3.63;;
8540;SDS011;4308;51.294;6.590;2023-04-01T18:54:29;4.07;;;3.67;;
8540;SDS011;4308;51.294;6.590;2023-04-01T18:57:01;4.93;;;3.70;;
8540;SDS011;4308;51.294;6.590;2023-04-01T18:59:44;4.97;;;3.70;;
8540;SDS011;4308;51.294;6.590;2023-04-01T19:04:56;4.77;;;3.87;;
8540;SDS011;4308;51.294;6.590;2023-04-01T19:07:39;5.83;;;4.30;;
8540;SDS011;4308;51.294;6.590;2023-04-01T19:10:15;4.67;;;3.70;;
8540;SDS011;4308;51.294;6.590;2023-04-01T19:12:49;4.53;;;4.03;;
8540;SDS011;4308;51.294;6.590;2023-04-01T19:15:27;4.83;;;4.03;;
8540;SDS011;4308;51.294;6.590;2023-04-01T19:20:46;4.53;;;4.13;;
8540;SDS011;4308;51.294;6.590;2023-04-01T19:25:54;5.93;;;5.33;;
8540;SDS011;4308;51.294;6.590;2023-04-01T19:31:08;7.70;;;6.03;;
8540;SDS011;4308;51.294;6.590;2023-04-01T19:58:44;5.43;;;4.70;;
8540;SDS011;4308;51.294;6.590;2023-04-01T20:01:24;7.03;;;5.43;;
8540;SDS011;4308;51.294;6.590;2023-04-01T20:04:13;7.87;;;6.00;;
8540;SDS011;4308;51.294;6.590;2023-04-01T20:07:03;7.90;;;6.37;;
8540;SDS011;4308;51.294;6.590;2023-04-01T20:14:58;13.40;;;8.57;;
8540;SDS011;4308;51.294;6.590;2023-04-01T20:19:55;12.97;;;8.40;;
8540;SDS011;4308;51.294;6.590;2023-04-01T20:25:21;12.53;;;7.77;;
8540;SDS011;4308;51.294;6.590;2023-04-01T20:27:53;9.17;;;6.87;;
8540;SDS011;4308;51.294;6.590;2023-04-01T20:38:17;11.00;;;8.07;;
8540;SDS011;4308;51.294;6.590;2023-04-01T20:40:52;10.07;;;7.90;;
8540;SDS011;4308;51.294;6.590;2023-04-01T20:46:23;6.83;;;5.60;;
8540;SDS011;4308;51.294;6.590;2023-04-01T20:49:11;5.97;;;5.37;;
8540;SDS011;4308;51.294;6.590;2023-04-01T20:51:54;5.70;;;5.07;;
8540;SDS011;4308;51.294;6.590;2023-04-01T21:12:30;8.03;;;6.63;;
8540;SDS011;4308;51.294;6.590;2023-04-01T21:39:06;5.50;;;5.00;;
8540;SDS011;4308;51.294;6.590;2023-04-01T21:41:56;4.93;;;4.47;;
8540;SDS011;4308;51.294;6.590;2023-04-01T21:47:15;3.23;;;2.93;;
8540;SDS011;4308;51.294;6.590;2023-04-01T21:49:56;4.27;;;2.83;;
8540;SDS011;4308;51.294;6.590;2023-04-01T22:03:50;10.60;;;7.47;;
8540;SDS011;4308;51.294;6.590;2023-04-01T22:08:42;4.30;;;3.90;;
8540;SDS011;4308;51.294;6.590;2023-04-01T22:11:21;10.43;;;6.57;;
8540;SDS011;4308;51.294;6.590;2023-04-01T22:13:52;9.27;;;7.20;;
8540;SDS011;4308;51.294;6.590;2023-04-01T22:16:29;8.00;;;6.27;;
8540;SDS011;4308;51.294;6.590;2023-04-01T22:24:09;8.33;;;5.93;;
8540;SDS011;4308;51.294;6.590;2023-04-01T22:26:46;5.20;;;4.67;;
8540;SDS011;4308;51.294;6.590;2023-04-01T22:30:17;4.60;;;4.13;;
8540;SDS011;4308;51.294;6.590;2023-04-01T22:34:46;8.97;;;6.37;;
8540;SDS011;4308;51.294;6.590;2023-04-01T22:37:19;11.30;;;7.77;;
8540;SDS011;4308;51.294;6.590;2023-04-01T22:40:09;11.17;;;6.83;;
8540;SDS011;4308;51.294;6.590;2023-04-01T22:42:44;9.73;;;7.17;;
8540;SDS011;4308;51.294;6.590;2023-04-01T22:47:40;8.03;;;7.03;;
8540;SDS011;4308;51.294;6.590;2023-04-01T22:50:19;9.40;;;6.83;;
8540;SDS011;4308;51.294;6.590;2023-04-01T22:52:50;9.27;;;6.77;;
8540;SDS011;4308;51.294;6.590;2023-04-01T22:55:23;12.17;;;8.90;;
8540;SDS011;4308;51.294;6.590;2023-04-01T22:57:54;11.47;;;8.00;;
8540;SDS011;4308;51.294;6.590;2023-04-01T23:00:34;8.53;;;6.73;;
8540;SDS011;4308;51.294;6.590;2023-04-01T23:03:22;10.70;;;6.67;;
8540;SDS011;4308;51.294;6.590;2023-04-01T23:05:53;14.03;;;8.77;;
8540;SDS011;4308;51.294;6.590;2023-04-01T23:11:08;7.13;;;6.40;;
8540;SDS011;4308;51.294;6.590;2023-04-01T23:13:38;12.47;;;6.83;;
8540;SDS011;4308;51.294;6.590;2023-04-01T23:16:07;9.90;;;5.70;;
8540;SDS011;4308;51.294;6.590;2023-04-01T23:18:46;8.57;;;6.53;;
8540;SDS011;4308;51.294;6.590;2023-04-01T23:21:21;7.67;;;4.70;;
8540;SDS011;4308;51.294;6.590;2023-04-01T23:26:37;10.17;;;9.13;;
8540;SDS011;4308;51.294;6.590;2023-04-01T23:29:11;12.70;;;8.63;;
8540;SDS011;4308;51.294;6.590;2023-04-01T23:31:41;8.63;;;5.77;;
8540;SDS011;4308;51.294;6.590;2023-04-01T23:36:41;11.63;;;5.17;;
8540;SDS011;4308;51.294;6.590;2023-04-01T23:41:56;11.23;;;7.47;;
8540;SDS011;4308;51.294;6.590;2023-04-01T23:44:25;4.80;;;3.77;;
8540;SDS011;4308;51.294;6.590;2023-04-01T23:46:54;5.53;;;3.77;;
8540;SDS011;4308;51.294;6.590;2023-04-01T23:49:28;7.03;;;5.37;;
8540;SDS011;4308;51.294;6.590;2023-04-01T23:52:05;7.77;;;5.67;;
8540;SDS011;4308;51.294;6.590;2023-04-01T23:54:51;7.47;;;6.10;;
8540;SDS011;4308;51.294;6.590;2023-04-01T23:57:37;9.20;;;6.37;;
